createdAt,value
2019-05-18T00:01:08.587Z,4.70
2019-05-18T00:03:34.781Z,4.40
2019-05-18T00:06:00.893Z,5.08
2019-05-18T00:08:27.284Z,3.83
2019-05-18T00:10:53.453Z,4.70
2019-05-18T00:13:19.606Z,3.75
2019-05-18T00:15:45.812Z,3.98
2019-05-18T00:18:11.912Z,6.12
2019-05-18T00:20:38.038Z,5.15
2019-05-18T00:23:04.248Z,5.30
2019-05-18T00:25:30.394Z,5.37
2019-05-18T00:27:56.588Z,5.08
2019-05-18T00:30:22.732Z,6.40
2019-05-18T00:32:49.311Z,6.33
2019-05-18T00:35:16.752Z,6.20
2019-05-18T00:37:43.208Z,5.55
2019-05-18T00:40:10.310Z,5.65
2019-05-18T00:42:36.498Z,4.42
2019-05-18T00:45:05.281Z,5.90
2019-05-18T00:47:40.827Z,5.08
2019-05-18T00:49:59.540Z,5.12
2019-05-18T00:52:25.660Z,5.87
2019-05-18T00:54:51.744Z,4.50
2019-05-18T00:57:17.940Z,5.00
2019-05-18T00:59:44.224Z,4.95
2019-05-18T01:02:10.533Z,6.03
2019-05-18T01:04:36.848Z,5.97
2019-05-18T01:07:03.105Z,4.72
2019-05-18T01:09:29.270Z,5.67
2019-05-18T01:11:55.437Z,6.08
2019-05-18T01:14:21.728Z,5.62
2019-05-18T01:16:47.851Z,6.12
2019-05-18T01:19:14.069Z,5.83
2019-05-18T01:21:40.183Z,5.40
2019-05-18T01:24:06.459Z,6.47
2019-05-18T01:26:32.669Z,5.47
2019-05-18T01:29:01.107Z,6.80
2019-05-18T01:31:27.422Z,6.28
2019-05-18T01:33:53.650Z,7.10
2019-05-18T01:36:19.867Z,7.40
2019-05-18T01:38:46.157Z,6.33
2019-05-18T01:41:12.274Z,6.62
2019-05-18T01:43:38.473Z,4.40
2019-05-18T01:46:05.171Z,4.83
2019-05-18T01:48:31.301Z,7.28
2019-05-18T01:50:57.411Z,7.08
2019-05-18T01:53:23.609Z,6.50
2019-05-18T01:55:49.784Z,5.33
2019-05-18T01:58:15.920Z,8.23
2019-05-18T02:00:42.210Z,6.35
2019-05-18T02:03:11.326Z,4.47
2019-05-18T02:05:37.449Z,7.83
2019-05-18T02:08:04.451Z,6.78
2019-05-18T02:10:30.551Z,5.30
2019-05-18T02:12:56.754Z,6.10
2019-05-18T02:15:23.148Z,5.90
2019-05-18T02:17:49.316Z,6.25
2019-05-18T02:20:15.759Z,5.78
2019-05-18T02:22:41.965Z,7.60
2019-05-18T02:25:08.782Z,8.70
2019-05-18T02:27:35.107Z,7.00
2019-05-18T02:30:01.859Z,7.42
2019-05-18T02:32:28.118Z,6.92
2019-05-18T02:34:54.712Z,5.60
2019-05-18T02:37:21.145Z,6.87
2019-05-18T02:39:49.255Z,7.22
2019-05-18T02:42:15.383Z,6.87
2019-05-18T02:44:41.583Z,5.70
2019-05-18T02:47:07.919Z,6.70
2019-05-18T02:49:34.101Z,8.70
2019-05-18T02:52:00.319Z,8.33
2019-05-18T02:54:26.432Z,6.60
2019-05-18T02:56:52.708Z,6.55
2019-05-18T02:59:19.572Z,6.70
2019-05-18T03:01:45.757Z,6.70
2019-05-18T03:04:11.952Z,6.67
2019-05-18T03:06:38.062Z,7.42
2019-05-18T03:09:08.165Z,6.40
2019-05-18T03:11:34.446Z,5.85
2019-05-18T03:14:00.641Z,7.33
2019-05-18T03:16:26.872Z,6.40
2019-05-18T03:19:07.535Z,10.08
2019-05-18T03:21:23.528Z,7.47
2019-05-18T03:23:49.780Z,8.83
2019-05-18T03:26:15.898Z,8.60
2019-05-18T03:28:41.999Z,8.58
2019-05-18T03:31:08.262Z,6.47
2019-05-18T03:33:34.461Z,9.30
2019-05-18T03:36:00.664Z,7.47
2019-05-18T03:38:27.002Z,6.75
2019-05-18T03:40:53.195Z,7.30
2019-05-18T03:43:19.289Z,6.30
2019-05-18T03:45:45.405Z,6.50
2019-05-18T03:48:11.592Z,4.78
2019-05-18T03:50:42.107Z,6.75
2019-05-18T03:53:08.290Z,7.17
2019-05-18T03:55:34.586Z,6.12
2019-05-18T03:58:03.756Z,4.78
2019-05-18T04:00:30.045Z,7.92
2019-05-18T04:02:56.673Z,5.85
2019-05-18T04:05:22.909Z,5.33
2019-05-18T04:07:49.067Z,6.00
2019-05-18T04:10:19.002Z,5.33
2019-05-18T04:12:45.211Z,4.72
2019-05-18T04:15:11.620Z,4.80
2019-05-18T04:17:38.018Z,5.05
2019-05-18T04:20:05.551Z,4.60
2019-05-18T04:22:31.964Z,5.62
2019-05-18T04:24:58.163Z,4.42
2019-05-18T04:27:24.257Z,5.15
2019-05-18T04:29:50.413Z,5.72
2019-05-18T04:32:16.600Z,7.15
2019-05-18T04:34:42.817Z,5.90
2019-05-18T04:37:10.679Z,7.08
2019-05-18T04:39:36.908Z,7.33
2019-05-18T04:42:03.103Z,5.75
2019-05-18T04:44:29.814Z,5.62
2019-05-18T04:46:55.983Z,5.67
2019-05-18T04:49:22.246Z,5.62
2019-05-18T04:51:48.435Z,6.33
2019-05-18T04:54:14.653Z,5.17
2019-05-18T04:56:42.982Z,6.15
2019-05-18T04:59:09.254Z,4.87
2019-05-18T05:01:35.485Z,6.83
2019-05-18T05:04:04.374Z,5.47
2019-05-18T05:06:30.751Z,6.17
2019-05-18T05:08:57.039Z,4.75
2019-05-18T05:11:23.265Z,4.08
2019-05-18T05:13:49.448Z,6.25
2019-05-18T05:16:15.539Z,5.22
2019-05-18T05:18:41.683Z,3.62
2019-05-18T05:21:07.896Z,6.10
2019-05-18T05:23:33.997Z,5.50
2019-05-18T05:26:00.127Z,4.30
2019-05-18T05:28:26.307Z,6.70
2019-05-18T05:30:52.403Z,5.65
2019-05-18T05:33:18.508Z,6.12
2019-05-18T05:35:44.704Z,4.72
2019-05-18T05:38:11.901Z,4.37
2019-05-18T05:40:38.036Z,4.47
2019-05-18T05:43:05.160Z,6.08
2019-05-18T05:45:31.266Z,4.15
2019-05-18T05:47:57.389Z,7.03
2019-05-18T05:50:35.214Z,13.10
2019-05-18T05:52:51.619Z,10.93
2019-05-18T05:55:17.996Z,9.63
2019-05-18T05:57:44.180Z,10.23
2019-05-18T06:00:10.608Z,9.28
2019-05-18T06:02:36.736Z,8.50
2019-05-18T06:05:05.143Z,6.83
2019-05-18T06:07:31.353Z,6.65
2019-05-18T06:09:57.512Z,7.67
2019-05-18T06:12:23.698Z,8.38
2019-05-18T06:14:49.932Z,9.30
2019-05-18T06:17:16.121Z,7.47
2019-05-18T06:19:42.215Z,7.35
2019-05-18T06:22:08.323Z,8.05
2019-05-18T06:24:34.423Z,13.08
2019-05-18T06:27:00.538Z,12.20
2019-05-18T06:29:28.799Z,8.65
2019-05-18T06:31:54.969Z,8.85
2019-05-18T06:34:21.209Z,12.95
2019-05-18T06:36:47.401Z,13.78
2019-05-18T06:39:13.568Z,7.67
2019-05-18T06:41:39.722Z,10.55
2019-05-18T06:44:05.913Z,7.70
2019-05-18T06:46:32.167Z,8.93
2019-05-18T06:48:58.381Z,14.95
2019-05-18T06:51:24.587Z,14.20
2019-05-18T06:53:50.716Z,9.60
2019-05-18T06:56:17.113Z,8.65
2019-05-18T06:58:44.528Z,8.88
2019-05-18T07:01:10.643Z,10.32
2019-05-18T07:03:37.081Z,11.22
2019-05-18T07:06:03.287Z,10.68
2019-05-18T07:08:29.481Z,10.13
2019-05-18T07:10:55.934Z,10.45
2019-05-18T07:13:22.171Z,12.95
2019-05-18T07:15:50.318Z,17.80
2019-05-18T07:18:16.442Z,14.47
2019-05-18T07:20:42.636Z,12.20
2019-05-18T07:23:08.985Z,13.83
2019-05-18T07:25:35.184Z,14.30
2019-05-18T07:28:01.909Z,11.33
2019-05-18T07:30:28.089Z,11.15
2019-05-18T07:32:54.218Z,12.10
2019-05-18T07:35:20.805Z,17.07
2019-05-18T07:37:46.993Z,17.90
2019-05-18T07:40:13.415Z,12.88
2019-05-18T07:42:39.694Z,8.50
2019-05-18T07:45:09.669Z,13.32
2019-05-18T07:47:35.958Z,18.32
2019-05-18T07:50:04.263Z,17.75
2019-05-18T07:52:30.437Z,11.08
2019-05-18T07:54:58.529Z,9.60
2019-05-18T07:57:24.673Z,8.20
2019-05-18T07:59:51.458Z,8.30
2019-05-18T08:02:20.265Z,10.40
2019-05-18T08:04:53.886Z,9.08
2019-05-18T08:07:44.824Z,8.90
2019-05-18T08:13:04.126Z,8.68
2019-05-18T08:15:32.342Z,7.50
2019-05-18T08:24:00.111Z,8.23
2019-05-18T08:26:26.295Z,10.58
2019-05-18T08:28:52.424Z,12.50
2019-05-18T08:31:18.541Z,10.75
2019-05-18T08:33:44.736Z,11.05
2019-05-18T08:36:11.011Z,13.13
2019-05-18T08:38:37.106Z,12.50
2019-05-18T08:41:03.463Z,9.60
2019-05-18T08:43:29.638Z,12.90
2019-05-18T08:45:55.747Z,13.90
2019-05-18T08:48:21.940Z,13.95
2019-05-18T08:50:48.148Z,11.05
2019-05-18T08:53:14.399Z,11.18
2019-05-18T08:55:40.607Z,12.23
2019-05-18T08:58:06.814Z,10.25
2019-05-18T09:00:33.038Z,14.25
2019-05-18T09:02:59.165Z,18.40
2019-05-18T09:05:25.358Z,15.63
2019-05-18T09:07:51.560Z,12.40
2019-05-18T09:10:17.855Z,11.55
2019-05-18T09:12:43.982Z,13.75
2019-05-18T09:15:10.475Z,21.68
2019-05-18T09:17:36.700Z,14.93
2019-05-18T09:20:06.656Z,13.70
2019-05-18T09:22:33.051Z,8.48
2019-05-18T09:24:59.360Z,8.05
2019-05-18T09:27:25.599Z,10.88
2019-05-18T09:29:52.024Z,8.45
2019-05-18T09:32:18.257Z,11.57
2019-05-18T09:34:44.465Z,10.68
2019-05-18T09:37:10.768Z,12.75
2019-05-18T09:39:37.057Z,11.68
2019-05-18T09:42:03.750Z,20.05
2019-05-18T09:44:30.078Z,19.87
2019-05-18T09:46:56.283Z,18.65
2019-05-18T09:49:22.444Z,16.37
2019-05-18T09:51:50.606Z,9.33
2019-05-18T09:54:16.973Z,12.33
2019-05-18T09:56:43.103Z,13.30
2019-05-18T09:59:09.385Z,10.08
2019-05-18T10:01:35.885Z,11.05
2019-05-18T10:04:02.201Z,14.28
2019-05-18T10:06:31.275Z,10.53
2019-05-18T10:08:56.403Z,9.35
2019-05-18T10:11:22.611Z,14.15
2019-05-18T10:13:48.916Z,14.13
2019-05-18T10:16:15.031Z,13.85
2019-05-18T10:18:43.181Z,9.55
2019-05-18T10:21:13.773Z,10.35
2019-05-18T10:23:45.817Z,9.88
2019-05-18T10:26:12.185Z,9.58
2019-05-18T10:28:38.480Z,9.25
2019-05-18T10:31:05.041Z,10.32
2019-05-18T10:33:31.592Z,8.10
2019-05-18T10:35:57.811Z,9.35
2019-05-18T10:38:24.030Z,8.55
2019-05-18T10:40:51.526Z,10.90
2019-05-18T10:43:17.846Z,7.25
2019-05-18T10:45:45.157Z,6.90
2019-05-18T10:48:14.358Z,6.67
2019-05-18T10:50:42.971Z,6.28
2019-05-18T10:53:09.169Z,7.85
2019-05-18T10:55:35.371Z,8.68
2019-05-18T10:58:04.031Z,6.67
2019-05-18T11:00:30.623Z,10.70
2019-05-18T11:02:56.790Z,5.87
2019-05-18T11:05:23.288Z,7.97
2019-05-18T11:07:49.566Z,8.63
2019-05-18T11:10:17.800Z,8.43
2019-05-18T11:12:44.184Z,5.70
2019-05-18T11:15:11.040Z,9.90
2019-05-18T11:17:37.292Z,11.03
2019-05-18T11:20:08.452Z,13.70
2019-05-18T11:22:34.817Z,16.20
2019-05-18T11:25:01.227Z,13.35
2019-05-18T11:27:27.530Z,8.00
2019-05-18T11:29:57.895Z,12.82
2019-05-18T11:32:24.656Z,11.75
2019-05-18T11:34:50.955Z,16.45
2019-05-18T11:37:17.183Z,11.08
2019-05-18T11:39:43.389Z,11.83
2019-05-18T11:42:32.335Z,13.40
2019-05-18T11:45:00.700Z,11.45
2019-05-18T11:47:26.891Z,13.32
2019-05-18T11:49:55.253Z,12.40
2019-05-18T11:52:21.459Z,11.35
2019-05-18T11:54:47.644Z,8.25
2019-05-18T11:57:13.880Z,8.15
2019-05-18T11:59:40.194Z,16.25
2019-05-18T12:02:15.578Z,11.35
2019-05-18T12:04:53.204Z,12.03
2019-05-18T12:07:59.535Z,14.33
2019-05-18T12:10:37.562Z,15.90
2019-05-18T12:13:13.428Z,12.28
2019-05-18T12:18:57.299Z,18.55
2019-05-18T12:24:28.962Z,11.20
2019-05-18T12:32:45.279Z,9.20
2019-05-18T12:35:12.359Z,10.08
2019-05-18T12:37:38.586Z,6.80
2019-05-18T12:40:06.218Z,8.73
2019-05-18T12:42:32.537Z,13.75
2019-05-18T12:44:59.354Z,12.90
2019-05-18T12:47:25.709Z,11.22
2019-05-18T12:49:52.212Z,9.83
2019-05-18T12:52:18.896Z,5.65
2019-05-18T12:54:46.905Z,9.10
2019-05-18T12:57:13.706Z,10.98
2019-05-18T12:59:40.265Z,6.85
2019-05-18T13:02:06.849Z,5.70
2019-05-18T13:04:33.318Z,5.33
2019-05-18T13:06:59.632Z,5.78
2019-05-18T13:09:26.081Z,9.18
2019-05-18T13:11:52.287Z,12.53
2019-05-18T13:14:21.512Z,10.30
2019-05-18T13:16:48.168Z,8.75
2019-05-18T13:19:14.380Z,5.80
2019-05-18T13:21:40.865Z,7.22
2019-05-18T13:24:07.237Z,11.85
2019-05-18T13:26:33.352Z,8.20
2019-05-18T13:28:59.582Z,5.92
2019-05-18T13:37:47.469Z,7.58
2019-05-18T13:40:14.623Z,12.63
2019-05-18T13:42:40.854Z,8.63
2019-05-18T13:45:15.009Z,11.25
2019-05-18T13:47:45.548Z,14.40
2019-05-18T13:50:12.279Z,13.03
2019-05-18T13:52:40.083Z,8.08
2019-05-18T13:55:07.190Z,10.55
2019-05-18T13:57:34.433Z,9.25
2019-05-18T14:00:01.873Z,6.20
2019-05-18T14:02:28.164Z,11.83
2019-05-18T14:04:54.382Z,22.00
2019-05-18T14:07:20.627Z,18.30
2019-05-18T14:09:46.908Z,10.32
2019-05-18T14:12:14.554Z,15.23
2019-05-18T14:14:40.696Z,13.70
2019-05-18T14:17:07.193Z,10.15
2019-05-18T14:19:33.340Z,11.18
2019-05-18T14:21:59.700Z,11.73
2019-05-18T14:24:25.808Z,12.37
2019-05-18T14:26:51.955Z,16.20
2019-05-18T14:29:18.287Z,12.63
2019-05-18T14:31:44.521Z,16.10
2019-05-18T14:34:10.712Z,13.78
2019-05-18T14:36:36.916Z,18.55
2019-05-18T14:39:04.849Z,12.13
2019-05-18T14:41:30.937Z,13.53
2019-05-18T14:43:57.064Z,13.10
2019-05-18T14:46:23.253Z,7.60
2019-05-18T14:48:49.522Z,14.20
2019-05-18T14:51:16.016Z,9.93
2019-05-18T14:53:58.982Z,8.25
2019-05-18T14:56:25.476Z,9.28
2019-05-18T14:58:51.667Z,9.70
2019-05-18T15:01:17.905Z,8.15
2019-05-18T15:03:44.029Z,7.95
2019-05-18T15:06:10.231Z,14.95
2019-05-18T15:08:36.359Z,8.90
2019-05-18T15:11:02.499Z,8.40
2019-05-18T15:13:28.715Z,7.10
2019-05-18T15:15:54.889Z,11.25
2019-05-18T15:18:21.007Z,8.20
2019-05-18T15:20:47.095Z,7.45
2019-05-18T15:23:13.315Z,6.92
2019-05-18T15:25:50.237Z,8.03
2019-05-18T15:28:07.410Z,5.40
2019-05-18T15:30:33.517Z,7.42
2019-05-18T15:32:59.716Z,6.60
2019-05-18T15:35:25.835Z,10.35
2019-05-18T15:37:51.959Z,12.33
2019-05-18T15:40:18.154Z,13.48
2019-05-18T15:42:44.392Z,12.13
2019-05-18T15:45:15.091Z,6.37
2019-05-18T15:47:41.254Z,10.35
2019-05-18T15:50:08.793Z,10.28
2019-05-18T15:52:34.975Z,15.63
2019-05-18T15:55:06.189Z,14.98
2019-05-18T15:57:34.589Z,25.70
2019-05-18T16:00:06.493Z,16.40
2019-05-18T16:02:32.786Z,19.15
2019-05-18T16:04:59.092Z,18.30
2019-05-18T16:07:25.454Z,20.27
2019-05-18T16:09:53.858Z,14.75
2019-05-18T16:12:20.446Z,18.27
2019-05-18T16:14:46.773Z,23.18
2019-05-18T16:17:37.013Z,27.50
2019-05-18T16:19:51.076Z,17.87
2019-05-18T16:22:19.223Z,18.27
2019-05-18T16:24:45.403Z,18.15
2019-05-18T16:27:11.753Z,20.05
2019-05-18T16:29:41.557Z,20.80
2019-05-18T16:32:08.059Z,18.23
2019-05-18T16:34:35.582Z,17.40
2019-05-18T16:37:03.979Z,18.60
2019-05-18T16:39:30.261Z,32.13
2019-05-18T16:41:56.662Z,20.10
2019-05-18T16:44:22.738Z,24.90
2019-05-18T16:46:48.946Z,26.05
2019-05-18T16:49:15.247Z,24.87
2019-05-18T16:51:41.364Z,20.45
2019-05-18T16:54:07.540Z,26.00
2019-05-18T16:56:35.430Z,22.82
2019-05-18T16:59:01.743Z,24.63
2019-05-18T17:01:27.933Z,26.85
2019-05-18T17:03:54.189Z,22.07
2019-05-18T17:06:20.295Z,34.70
2019-05-18T17:08:46.406Z,31.40
2019-05-18T17:11:12.765Z,25.15
2019-05-18T17:13:39.006Z,26.77
2019-05-18T17:16:05.300Z,25.92
2019-05-18T17:18:31.439Z,23.65
2019-05-18T17:20:57.616Z,25.62
2019-05-18T17:23:23.820Z,21.07
2019-05-18T17:25:50.188Z,30.80
2019-05-18T17:28:16.366Z,27.27
2019-05-18T17:30:42.994Z,33.55
2019-05-18T17:33:09.168Z,25.40
2019-05-18T17:35:35.343Z,31.48
2019-05-18T17:38:01.521Z,28.87
2019-05-18T17:40:27.641Z,19.42
2019-05-18T17:42:53.858Z,26.27
2019-05-18T17:45:20.334Z,20.32
2019-05-18T17:47:46.418Z,25.10
2019-05-18T17:50:13.116Z,16.10
2019-05-18T17:52:39.529Z,26.73
2019-05-18T17:55:06.358Z,24.77
2019-05-18T17:57:32.582Z,27.52
2019-05-18T17:59:59.088Z,17.32
2019-05-18T18:02:25.372Z,19.23
2019-05-18T18:04:54.211Z,22.67
2019-05-18T18:07:19.818Z,16.62
2019-05-18T18:09:46.009Z,25.88
2019-05-18T18:12:12.124Z,15.20
2019-05-18T18:14:38.271Z,24.57
2019-05-18T18:17:04.473Z,19.23
2019-05-18T18:19:30.586Z,17.75
2019-05-18T18:21:56.715Z,29.00
2019-05-18T18:24:23.039Z,20.70
2019-05-18T18:26:49.236Z,24.82
2019-05-18T18:29:15.431Z,26.02
2019-05-18T18:31:41.535Z,24.32
2019-05-18T18:34:07.779Z,30.20
2019-05-18T18:36:34.025Z,24.72
2019-05-18T18:39:00.233Z,28.65
2019-05-18T18:41:26.447Z,22.15
2019-05-18T18:43:52.782Z,21.20
2019-05-18T18:46:18.906Z,25.92
2019-05-18T18:48:45.049Z,23.92
2019-05-18T18:51:11.157Z,24.07
2019-05-18T18:53:37.426Z,24.00
2019-05-18T18:56:03.751Z,24.57
2019-05-18T18:58:29.995Z,22.30
2019-05-18T19:00:56.237Z,24.75
2019-05-18T19:03:22.408Z,19.00
2019-05-18T19:05:48.521Z,26.35
2019-05-18T19:08:14.648Z,20.43
2019-05-18T19:10:40.836Z,20.62
2019-05-18T19:13:07.037Z,17.73
2019-05-18T19:15:33.249Z,16.95
2019-05-18T19:17:59.465Z,18.10
2019-05-18T19:20:28.260Z,22.52
2019-05-18T19:22:54.350Z,29.15
2019-05-18T19:25:22.015Z,26.90
2019-05-18T19:27:55.004Z,23.60
2019-05-18T19:30:16.445Z,26.27
2019-05-18T19:32:42.544Z,21.33
2019-05-18T19:35:08.875Z,23.30
2019-05-18T19:37:35.101Z,20.68
2019-05-18T19:40:01.457Z,27.00
2019-05-18T19:42:27.675Z,27.75
2019-05-18T19:44:54.090Z,25.90
2019-05-18T19:47:20.260Z,21.65
2019-05-18T19:49:46.533Z,34.08
2019-05-18T19:52:12.727Z,29.12
2019-05-18T19:54:39.160Z,25.12
2019-05-18T19:57:05.390Z,25.12
2019-05-18T19:59:31.951Z,21.25
2019-05-18T20:01:59.392Z,34.00
2019-05-18T20:04:26.155Z,30.17
2019-05-18T20:06:52.946Z,26.68
2019-05-18T20:09:19.172Z,26.00
2019-05-18T20:11:45.813Z,23.70
2019-05-18T20:14:12.281Z,20.90
2019-05-18T20:16:39.101Z,19.70
2019-05-18T20:19:05.317Z,20.92
2019-05-18T20:21:31.762Z,20.70
2019-05-18T20:23:58.021Z,27.70
2019-05-18T20:26:24.200Z,20.08
2019-05-18T20:28:50.583Z,22.50
2019-05-18T20:31:16.840Z,31.90
2019-05-18T20:33:43.162Z,28.20
2019-05-18T20:36:11.843Z,27.30
2019-05-18T20:39:28.031Z,29.02
2019-05-18T20:41:56.785Z,23.98
2019-05-18T20:44:23.241Z,21.07
2019-05-18T20:46:56.642Z,26.80
2019-05-18T20:49:23.799Z,23.12
2019-05-18T20:51:51.459Z,25.68
2019-05-18T20:54:17.879Z,32.93
2019-05-18T20:56:43.981Z,24.52
2019-05-18T20:59:10.235Z,24.37
2019-05-18T21:02:21.430Z,33.30
2019-05-18T21:04:56.234Z,19.70
2019-05-18T21:07:22.356Z,24.27
2019-05-18T21:09:51.967Z,21.17
2019-05-18T21:12:18.176Z,26.02
2019-05-18T21:14:44.599Z,28.38
2019-05-18T21:17:13.640Z,21.97
2019-05-18T21:19:54.240Z,28.02
2019-05-18T21:22:26.185Z,21.68
2019-05-18T21:27:42.989Z,22.20
2019-05-18T21:30:11.414Z,16.10
2019-05-18T21:32:37.628Z,26.35
2019-05-18T21:35:05.901Z,34.73
2019-05-18T21:37:32.649Z,23.35
2019-05-18T21:39:58.903Z,21.27
2019-05-18T21:42:25.124Z,20.50
2019-05-18T21:44:51.232Z,15.45
2019-05-18T21:47:17.451Z,26.52
2019-05-18T21:49:43.635Z,23.55
2019-05-18T21:52:09.736Z,26.05
2019-05-18T21:54:35.897Z,25.12
2019-05-18T21:57:02.204Z,18.73
2019-05-18T21:59:28.400Z,20.20
2019-05-18T22:01:54.601Z,18.35
2019-05-18T22:04:20.751Z,22.75
2019-05-18T22:06:46.872Z,20.48
2019-05-18T22:09:13.009Z,19.55
2019-05-18T22:11:39.216Z,12.43
2019-05-18T22:14:05.417Z,19.15
2019-05-18T22:16:31.622Z,18.32
2019-05-18T22:18:57.724Z,15.88
2019-05-18T22:21:23.939Z,17.02
2019-05-18T22:23:50.027Z,21.33
2019-05-18T22:26:16.116Z,18.10
2019-05-18T22:28:42.213Z,16.67
2019-05-18T22:31:08.430Z,20.48
2019-05-18T22:33:34.567Z,26.42
2019-05-18T22:36:03.895Z,22.52
2019-05-18T22:38:30.105Z,21.35
2019-05-18T22:40:56.289Z,17.25
2019-05-18T22:43:22.430Z,17.87
2019-05-18T22:45:48.617Z,17.82
2019-05-18T22:48:14.751Z,15.30
2019-05-18T22:50:40.842Z,15.55
2019-05-18T22:53:06.943Z,17.82
2019-05-18T22:55:33.161Z,16.25
2019-05-18T22:57:59.345Z,17.95
2019-05-18T23:00:25.756Z,15.53
2019-05-18T23:02:52.036Z,20.30
2019-05-18T23:05:18.272Z,15.50
2019-05-18T23:07:44.458Z,23.35
2019-05-18T23:10:10.771Z,14.95
2019-05-18T23:12:36.875Z,18.10
2019-05-18T23:15:04.808Z,22.17
2019-05-18T23:17:31.148Z,15.90
2019-05-18T23:19:57.351Z,29.20
2019-05-18T23:22:23.558Z,26.52
2019-05-18T23:24:49.644Z,25.48
2019-05-18T23:27:15.752Z,19.25
2019-05-18T23:29:41.843Z,20.97
2019-05-18T23:32:07.968Z,26.95
2019-05-18T23:34:34.172Z,23.98
2019-05-18T23:37:00.355Z,29.37
2019-05-18T23:39:26.509Z,24.10
2019-05-18T23:41:52.682Z,21.87
2019-05-18T23:44:18.774Z,21.80
2019-05-18T23:46:44.881Z,24.50
2019-05-18T23:49:11.370Z,22.00
2019-05-18T23:51:37.597Z,18.60
2019-05-18T23:54:03.999Z,20.45
2019-05-18T23:56:30.209Z,19.48
2019-05-18T23:58:56.432Z,16.20
